createdAt,value
2023-04-22T00:00:48.163Z,54.93
2023-04-22T00:03:23.699Z,54.85
2023-04-22T00:05:56.726Z,54.78
2023-04-22T00:08:29.136Z,54.96
2023-04-22T00:11:01.801Z,55.19
2023-04-22T00:13:33.980Z,55.32
2023-04-22T00:16:06.890Z,55.39
2023-04-22T00:18:39.782Z,55.59
2023-04-22T00:21:12.179Z,55.76
2023-04-22T00:23:45.374Z,55.85
2023-04-22T00:26:17.675Z,55.92
2023-04-22T00:28:50.274Z,56.07
2023-04-22T00:31:22.869Z,55.91
2023-04-22T00:33:55.302Z,55.91
2023-04-22T00:36:28.867Z,55.88
2023-04-22T00:39:01.210Z,55.52
2023-04-22T00:41:34.016Z,55.83
2023-04-22T00:44:06.864Z,55.82
2023-04-22T00:46:40.378Z,55.84
2023-04-22T00:49:13.992Z,55.97
2023-04-22T00:51:46.294Z,55.94
2023-04-22T00:54:18.478Z,55.94
2023-04-22T00:56:50.728Z,55.91
2023-04-22T00:59:25.333Z,55.98
2023-04-22T01:01:59.333Z,55.70
2023-04-22T01:04:31.993Z,55.51
2023-04-22T01:07:04.603Z,55.36
2023-04-22T01:09:38.652Z,55.20
2023-04-22T01:12:11.376Z,55.26
2023-04-22T01:14:44.429Z,55.42
2023-04-22T01:17:19.421Z,55.64
2023-04-22T01:19:53.314Z,55.73
2023-04-22T01:22:27.351Z,55.65
2023-04-22T01:24:59.403Z,55.43
2023-04-22T01:27:32.023Z,55.32
2023-04-22T01:30:04.417Z,55.12
2023-04-22T01:32:37.426Z,55.08
2023-04-22T01:35:10.984Z,55.32
2023-04-22T01:37:43.354Z,55.15
2023-04-22T01:40:19.860Z,55.32
2023-04-22T01:42:52.836Z,55.39
2023-04-22T01:45:25.836Z,55.52
2023-04-22T01:47:59.352Z,55.49
2023-04-22T01:50:32.063Z,55.31
2023-04-22T01:53:04.470Z,54.98
2023-04-22T01:55:37.413Z,54.74
2023-04-22T01:58:09.574Z,55.09
2023-04-22T02:00:42.371Z,55.17
2023-04-22T02:03:14.736Z,55.35
2023-04-22T02:05:46.853Z,55.65
2023-04-22T02:08:19.312Z,55.83
2023-04-22T02:10:51.757Z,55.88
2023-04-22T02:13:24.167Z,55.72
2023-04-22T02:15:56.710Z,55.65
2023-04-22T02:18:29.287Z,55.66
2023-04-22T02:21:02.135Z,55.57
2023-04-22T02:23:34.632Z,55.73
2023-04-22T02:26:07.269Z,55.88
2023-04-22T02:28:40.104Z,55.99
2023-04-22T02:31:14.831Z,55.94
2023-04-22T02:33:45.433Z,55.63
2023-04-22T02:36:17.773Z,55.59
2023-04-22T02:38:51.916Z,55.65
2023-04-22T02:41:24.414Z,55.73
2023-04-22T02:43:57.062Z,55.75
2023-04-22T02:46:29.932Z,55.86
2023-04-22T02:49:02.885Z,56.14
2023-04-22T02:51:35.748Z,56.22
2023-04-22T02:54:08.360Z,56.41
2023-04-22T02:56:40.680Z,56.26
2023-04-22T02:59:12.939Z,56.10
2023-04-22T03:01:45.619Z,56.12
2023-04-22T03:04:25.768Z,56.47
2023-04-22T03:06:58.666Z,56.46
2023-04-22T03:09:31.594Z,56.36
2023-04-22T03:12:04.060Z,56.34
2023-04-22T03:14:36.496Z,56.30
2023-04-22T03:17:08.842Z,56.12
2023-04-22T03:19:41.929Z,56.31
2023-04-22T03:22:16.118Z,56.44
2023-04-22T03:24:49.057Z,56.60
2023-04-22T03:27:21.696Z,56.38
2023-04-22T03:29:54.294Z,56.40
2023-04-22T03:32:29.649Z,56.30
2023-04-22T03:35:24.104Z,56.21
2023-04-22T03:37:57.326Z,56.40
2023-04-22T03:40:34.354Z,56.63
2023-04-22T03:43:09.311Z,56.44
2023-04-22T03:45:42.114Z,56.35
2023-04-22T03:48:22.172Z,56.30
2023-04-22T03:50:56.540Z,56.28
2023-04-22T03:53:30.058Z,56.25
2023-04-22T03:56:02.199Z,56.52
2023-04-22T03:58:35.278Z,56.60
2023-04-22T04:01:11.360Z,56.75
2023-04-22T04:03:47.652Z,56.96
2023-04-22T04:06:20.525Z,56.89
2023-04-22T04:08:53.055Z,57.18
2023-04-22T04:11:25.618Z,57.02
2023-04-22T04:13:58.984Z,57.03
2023-04-22T04:16:43.096Z,57.00
2023-04-22T04:19:19.428Z,57.16
2023-04-22T04:21:53.377Z,57.31
2023-04-22T04:24:26.659Z,57.14
2023-04-22T04:27:03.261Z,57.41
2023-04-22T04:29:42.656Z,57.49
2023-04-22T04:32:21.904Z,57.70
2023-04-22T04:34:54.721Z,58.08
2023-04-22T04:37:28.390Z,58.08
2023-04-22T04:40:05.011Z,58.22
2023-04-22T04:42:46.920Z,58.09
2023-04-22T04:45:24.668Z,58.10
2023-04-22T04:48:00.737Z,58.31
2023-04-22T04:50:36.518Z,58.78
2023-04-22T04:53:09.402Z,58.86
2023-04-22T04:55:44.742Z,59.03
2023-04-22T04:58:23.254Z,58.99
2023-04-22T05:01:04.063Z,59.43
2023-04-22T05:03:36.426Z,59.76
2023-04-22T05:06:10.776Z,60.24
2023-04-22T05:08:42.226Z,60.57
2023-04-22T05:11:15.106Z,59.93
2023-04-22T05:13:48.294Z,59.60
2023-04-22T05:16:25.493Z,59.60
2023-04-22T05:18:58.292Z,59.56
2023-04-22T05:21:31.616Z,59.90
2023-04-22T05:24:04.397Z,60.06
2023-04-22T05:26:37.396Z,59.90
2023-04-22T05:29:14.593Z,59.84
2023-04-22T05:31:47.268Z,59.64
2023-04-22T05:34:19.779Z,59.75
2023-04-22T05:36:52.202Z,59.88
2023-04-22T05:39:24.634Z,60.14
2023-04-22T05:41:57.715Z,60.16
2023-04-22T05:44:30.429Z,59.72
2023-04-22T05:47:03.274Z,59.28
2023-04-22T05:49:35.687Z,59.17
2023-04-22T05:52:10.436Z,58.67
2023-04-22T05:54:53.743Z,58.42
2023-04-22T05:57:26.798Z,58.38
2023-04-22T06:00:00.344Z,57.92
2023-04-22T06:02:32.972Z,58.25
2023-04-22T06:05:06.205Z,58.19
2023-04-22T06:07:38.871Z,57.93
2023-04-22T06:10:12.717Z,58.12
2023-04-22T06:12:45.004Z,58.19
2023-04-22T06:15:17.459Z,58.64
2023-04-22T06:17:51.015Z,59.24
2023-04-22T06:20:23.618Z,59.09
2023-04-22T06:22:56.419Z,58.63
2023-04-22T06:25:28.793Z,58.49
2023-04-22T06:28:01.947Z,58.98
2023-04-22T06:30:34.250Z,59.43
2023-04-22T06:33:06.785Z,59.37
2023-04-22T06:35:40.561Z,58.62
2023-04-22T06:38:12.976Z,58.56
2023-04-22T06:40:51.585Z,58.79
2023-04-22T06:43:29.898Z,58.32
2023-04-22T06:46:25.541Z,58.01
2023-04-22T06:48:57.743Z,57.94
2023-04-22T06:51:36.132Z,57.78
2023-04-22T06:54:08.657Z,57.98
2023-04-22T06:56:41.303Z,57.71
2023-04-22T06:59:14.027Z,57.89
2023-04-22T07:01:46.960Z,57.29
2023-04-22T07:04:19.538Z,57.34
2023-04-22T07:06:52.183Z,58.11
2023-04-22T07:09:24.674Z,57.83
2023-04-22T07:11:58.958Z,56.35
2023-04-22T07:14:34.780Z,55.76
2023-04-22T07:17:06.906Z,55.90
2023-04-22T07:19:39.884Z,57.09
2023-04-22T07:22:12.696Z,57.36
2023-04-22T07:24:44.952Z,56.50
2023-04-22T07:27:17.524Z,56.58
2023-04-22T07:29:50.280Z,56.81
2023-04-22T07:32:22.835Z,56.82
2023-04-22T07:34:55.219Z,56.87
2023-04-22T07:37:27.503Z,56.16
2023-04-22T07:39:59.884Z,55.68
2023-04-22T07:42:32.385Z,55.89
2023-04-22T07:45:04.800Z,55.82
2023-04-22T07:47:37.197Z,55.44
2023-04-22T07:50:11.344Z,55.92
2023-04-22T07:52:43.574Z,56.59
2023-04-22T07:55:15.787Z,60.20
2023-04-22T07:57:48.208Z,58.86
2023-04-22T08:00:20.970Z,59.56
2023-04-22T08:02:53.178Z,60.05
2023-04-22T08:05:25.796Z,57.95
2023-04-22T08:07:58.537Z,61.08
2023-04-22T08:10:31.314Z,56.37
2023-04-22T08:13:04.079Z,56.75
2023-04-22T08:15:36.627Z,55.54
2023-04-22T08:18:08.988Z,56.17
2023-04-22T08:20:41.096Z,60.20
2023-04-22T08:23:13.711Z,56.42
2023-04-22T08:25:46.315Z,56.20
2023-04-22T08:28:19.026Z,56.10
2023-04-22T08:30:51.793Z,54.14
2023-04-22T08:33:27.432Z,55.22
2023-04-22T08:35:59.783Z,54.30
2023-04-22T08:38:32.659Z,55.56
2023-04-22T08:41:06.064Z,52.71
2023-04-22T08:43:38.705Z,53.54
2023-04-22T08:46:11.596Z,51.89
2023-04-22T08:48:44.174Z,48.40
2023-04-22T08:51:17.723Z,49.38
2023-04-22T08:53:50.084Z,49.42
2023-04-22T08:56:22.905Z,49.57
2023-04-22T08:58:55.951Z,49.80
2023-04-22T09:01:32.085Z,46.87
2023-04-22T09:04:04.661Z,44.38
2023-04-22T09:06:37.080Z,45.75
2023-04-22T09:09:10.107Z,45.66
2023-04-22T09:11:42.712Z,46.48
2023-04-22T09:14:15.058Z,46.54
2023-04-22T09:16:51.554Z,44.91
2023-04-22T09:19:26.818Z,42.33
2023-04-22T09:22:01.976Z,42.77
2023-04-22T09:24:35.857Z,43.89
2023-04-22T09:27:08.416Z,44.73
2023-04-22T09:29:40.843Z,43.71
2023-04-22T09:32:14.151Z,42.94
2023-04-22T09:34:53.020Z,42.45
2023-04-22T09:37:39.018Z,40.59
2023-04-22T09:40:21.398Z,40.65
2023-04-22T09:42:52.721Z,39.08
2023-04-22T09:45:32.891Z,38.48
2023-04-22T09:48:08.544Z,37.85
2023-04-22T09:50:42.187Z,35.51
2023-04-22T09:53:16.192Z,35.88
2023-04-22T09:55:50.808Z,36.76
2023-04-22T09:58:25.993Z,37.52
2023-04-22T10:01:00.218Z,36.91
2023-04-22T10:03:33.090Z,35.12
2023-04-22T10:06:07.201Z,35.57
2023-04-22T10:08:40.159Z,34.55
2023-04-22T10:11:13.134Z,34.20
2023-04-22T10:13:45.402Z,34.68
2023-04-22T10:16:20.203Z,34.13
2023-04-22T10:18:56.659Z,34.86
2023-04-22T10:21:31.206Z,34.46
2023-04-22T10:24:03.438Z,34.16
2023-04-22T10:26:50.086Z,34.80
2023-04-22T10:29:24.208Z,34.51
2023-04-22T10:32:06.069Z,34.06
2023-04-22T10:34:40.255Z,35.65
2023-04-22T10:37:13.632Z,34.56
2023-04-22T10:40:06.715Z,33.58
2023-04-22T10:42:41.738Z,34.70
2023-04-22T10:45:16.839Z,35.76
2023-04-22T10:47:48.931Z,36.34
2023-04-22T10:50:26.137Z,36.25
2023-04-22T10:53:03.238Z,36.73
2023-04-22T10:55:53.184Z,37.21
2023-04-22T10:58:26.851Z,37.52
2023-04-22T11:01:03.222Z,35.60
2023-04-22T11:03:36.146Z,35.54
2023-04-22T11:06:20.101Z,36.16
2023-04-22T11:09:08.994Z,35.57
2023-04-22T11:11:41.311Z,35.59
2023-04-22T11:14:13.911Z,36.52
2023-04-22T11:16:52.747Z,34.73
2023-04-22T11:19:25.045Z,34.57
2023-04-22T11:21:58.831Z,35.76
2023-04-22T11:24:31.125Z,33.19
2023-04-22T11:27:03.319Z,32.66
2023-04-22T11:29:35.755Z,32.84
2023-04-22T11:32:08.109Z,33.16
2023-04-22T11:34:40.574Z,33.61
2023-04-22T11:37:13.432Z,32.47
2023-04-22T11:40:07.782Z,32.58
2023-04-22T11:42:37.892Z,32.07
2023-04-22T11:45:11.973Z,32.62
2023-04-22T11:47:46.123Z,32.81
2023-04-22T11:50:19.821Z,31.08
2023-04-22T11:52:54.395Z,30.95
2023-04-22T11:55:30.519Z,31.29
2023-04-22T11:58:07.242Z,31.05
2023-04-22T12:00:42.004Z,31.52
2023-04-22T12:03:18.811Z,31.59
2023-04-22T12:05:55.931Z,31.31
2023-04-22T12:08:32.252Z,31.48
2023-04-22T12:11:06.123Z,32.31
2023-04-22T12:13:45.638Z,31.86
2023-04-22T12:16:20.408Z,32.03
2023-04-22T12:18:51.958Z,32.64
2023-04-22T12:21:25.335Z,32.04
2023-04-22T12:24:00.162Z,31.42
2023-04-22T12:26:32.722Z,31.38
2023-04-22T12:29:05.163Z,31.19
2023-04-22T12:31:38.706Z,30.95
2023-04-22T12:34:10.963Z,30.94
2023-04-22T12:36:43.508Z,31.06
2023-04-22T12:39:16.555Z,31.72
2023-04-22T12:41:51.155Z,31.12
2023-04-22T12:44:25.180Z,30.72
2023-04-22T12:46:57.498Z,31.64
2023-04-22T12:49:29.673Z,31.43
2023-04-22T12:52:01.772Z,30.80
2023-04-22T12:54:34.177Z,31.33
2023-04-22T12:57:06.659Z,30.86
2023-04-22T12:59:39.373Z,30.71
2023-04-22T13:02:11.974Z,32.27
2023-04-22T13:04:45.769Z,31.82
2023-04-22T13:07:18.647Z,31.67
2023-04-22T13:09:51.559Z,31.23
2023-04-22T13:12:23.632Z,29.61
2023-04-22T13:14:55.954Z,29.62
2023-04-22T13:17:28.445Z,28.89
2023-04-22T13:20:00.920Z,30.29
2023-04-22T13:22:33.018Z,29.52
2023-04-22T13:25:06.544Z,29.74
2023-04-22T13:27:38.737Z,30.51
2023-04-22T13:30:12.805Z,31.20
2023-04-22T13:32:44.987Z,29.88
2023-04-22T13:35:18.460Z,28.67
2023-04-22T13:37:51.314Z,28.57
2023-04-22T13:40:23.809Z,29.12
2023-04-22T13:42:56.450Z,29.70
2023-04-22T13:45:28.802Z,28.57
2023-04-22T13:48:01.422Z,29.00
2023-04-22T13:50:34.208Z,29.02
2023-04-22T13:53:09.958Z,29.36
2023-04-22T13:55:43.432Z,29.56
2023-04-22T13:58:15.932Z,27.50
2023-04-22T14:00:48.472Z,28.29
2023-04-22T14:03:20.939Z,28.34
2023-04-22T14:05:53.970Z,28.76
2023-04-22T14:08:26.413Z,28.76
2023-04-22T14:10:59.645Z,29.10
2023-04-22T14:13:32.279Z,28.63
2023-04-22T14:16:09.754Z,28.26
2023-04-22T14:18:42.963Z,28.22
2023-04-22T14:21:15.767Z,28.69
2023-04-22T14:23:48.089Z,28.70
2023-04-22T14:26:21.031Z,27.94
2023-04-22T14:28:53.138Z,28.52
2023-04-22T14:31:25.475Z,29.44
2023-04-22T14:33:57.605Z,29.04
2023-04-22T14:36:30.214Z,29.42
2023-04-22T14:39:02.581Z,30.38
2023-04-22T14:41:35.752Z,29.75
2023-04-22T14:44:08.057Z,29.55
2023-04-22T14:46:40.421Z,28.98
2023-04-22T14:49:12.476Z,29.77
2023-04-22T14:51:45.418Z,30.75
2023-04-22T14:54:17.664Z,30.35
2023-04-22T14:56:52.289Z,30.07
2023-04-22T14:59:23.433Z,31.15
2023-04-22T15:01:55.944Z,31.98
2023-04-22T15:04:28.248Z,31.34
2023-04-22T15:07:01.776Z,31.09
2023-04-22T15:09:34.127Z,31.65
2023-04-22T15:12:06.841Z,31.24
2023-04-22T15:14:39.448Z,31.35
2023-04-22T15:17:13.170Z,32.39
2023-04-22T15:19:45.712Z,32.62
2023-04-22T15:22:18.512Z,31.48
2023-04-22T15:24:50.799Z,31.78
2023-04-22T15:27:23.238Z,32.81
2023-04-22T15:29:55.617Z,31.85
2023-04-22T15:32:28.036Z,31.13
2023-04-22T15:35:00.214Z,32.19
2023-04-22T15:37:32.542Z,31.78
2023-04-22T15:40:06.897Z,32.46
2023-04-22T15:42:38.085Z,33.32
2023-04-22T15:45:11.865Z,32.55
2023-04-22T15:47:44.311Z,32.25
2023-04-22T15:50:17.111Z,33.39
2023-04-22T15:52:49.222Z,32.18
2023-04-22T15:55:21.625Z,32.04
2023-04-22T15:57:53.785Z,30.70
2023-04-22T16:00:26.472Z,30.80
2023-04-22T16:02:59.412Z,31.24
2023-04-22T16:05:31.570Z,31.07
2023-04-22T16:08:03.718Z,31.04
2023-04-22T16:10:36.318Z,30.97
2023-04-22T16:13:09.046Z,31.77
2023-04-22T16:15:41.609Z,31.21
2023-04-22T16:18:15.208Z,31.23
2023-04-22T16:20:47.267Z,31.39
2023-04-22T16:23:19.791Z,31.26
2023-04-22T16:25:52.063Z,30.90
2023-04-22T16:28:24.069Z,31.52
2023-04-22T16:30:56.139Z,32.66
2023-04-22T16:33:29.056Z,33.00
2023-04-22T16:36:01.083Z,33.19
2023-04-22T16:38:34.089Z,33.49
2023-04-22T16:41:06.834Z,33.34
2023-04-22T16:43:41.082Z,32.87
2023-04-22T16:46:13.925Z,33.17
2023-04-22T16:48:46.428Z,33.57
2023-04-22T16:51:18.622Z,34.31
2023-04-22T16:53:50.680Z,35.40
2023-04-22T16:56:24.064Z,34.48
2023-04-22T16:58:56.360Z,33.90
2023-04-22T17:01:30.126Z,33.54
2023-04-22T17:04:02.530Z,33.59
2023-04-22T17:06:35.708Z,33.30
2023-04-22T17:09:10.331Z,33.56
2023-04-22T17:11:42.732Z,33.85
2023-04-22T17:14:15.340Z,33.24
2023-04-22T17:16:47.595Z,33.51
2023-04-22T17:19:19.786Z,34.27
2023-04-22T17:21:52.019Z,33.56
2023-04-22T17:24:25.013Z,34.12
2023-04-22T17:26:57.490Z,34.53
2023-04-22T17:29:29.700Z,34.83
2023-04-22T17:32:02.037Z,35.38
2023-04-22T17:34:34.312Z,35.30
2023-04-22T17:37:06.439Z,35.73
2023-04-22T17:39:40.184Z,36.31
2023-04-22T17:42:12.743Z,36.58
2023-04-22T17:44:45.416Z,37.03
2023-04-22T17:47:17.409Z,37.36
2023-04-22T17:49:49.742Z,37.90
2023-04-22T17:52:22.318Z,37.85
2023-04-22T17:54:54.755Z,38.76
2023-04-22T17:57:28.361Z,38.50
2023-04-22T18:00:00.733Z,38.77
2023-04-22T18:02:33.188Z,39.20
2023-04-22T18:05:06.268Z,39.60
2023-04-22T18:07:38.482Z,39.48
2023-04-22T18:10:13.082Z,39.48
2023-04-22T18:12:46.750Z,39.56
2023-04-22T18:15:20.825Z,39.90
2023-04-22T18:17:53.991Z,39.10
2023-04-22T18:20:26.518Z,39.18
2023-04-22T18:22:59.284Z,39.19
2023-04-22T18:25:31.654Z,39.10
2023-04-22T18:28:03.961Z,39.05
2023-04-22T18:30:36.086Z,39.48
2023-04-22T18:33:09.030Z,40.21
2023-04-22T18:35:42.137Z,40.62
2023-04-22T18:38:14.228Z,41.04
2023-04-22T18:40:46.737Z,41.32
2023-04-22T18:43:19.143Z,41.36
2023-04-22T18:45:51.848Z,41.73
2023-04-22T18:48:24.208Z,42.04
2023-04-22T18:50:56.745Z,42.64
2023-04-22T18:53:29.234Z,43.21
2023-04-22T18:56:01.490Z,42.92
2023-04-22T18:58:33.785Z,43.22
2023-04-22T19:01:06.556Z,43.39
2023-04-22T19:03:39.058Z,43.72
2023-04-22T19:06:12.453Z,44.21
2023-04-22T19:08:44.668Z,44.92
2023-04-22T19:11:17.180Z,45.66
2023-04-22T19:13:51.086Z,45.82
2023-04-22T19:16:26.367Z,45.89
2023-04-22T19:18:59.082Z,46.15
2023-04-22T19:21:31.555Z,46.41
2023-04-22T19:24:04.034Z,46.77
2023-04-22T19:26:36.393Z,46.59
2023-04-22T19:29:08.770Z,46.91
2023-04-22T19:31:41.021Z,47.34
2023-04-22T19:34:13.934Z,47.73
2023-04-22T19:36:46.650Z,47.49
2023-04-22T19:39:19.103Z,48.03
2023-04-22T19:41:51.611Z,46.65
2023-04-22T19:44:24.724Z,46.90
2023-04-22T19:46:57.367Z,48.04
2023-04-22T19:49:32.818Z,48.37
2023-04-22T19:52:09.118Z,48.42
2023-04-22T19:54:47.138Z,48.42
2023-04-22T19:57:20.609Z,48.49
2023-04-22T19:59:54.149Z,48.30
2023-04-22T20:02:28.571Z,48.17
2023-04-22T20:05:02.093Z,48.23
2023-04-22T20:07:35.003Z,48.73
2023-04-22T20:10:10.001Z,48.55
2023-04-22T20:12:42.975Z,47.95
2023-04-22T20:15:16.594Z,48.24
2023-04-22T20:17:50.242Z,48.19
2023-04-22T20:20:23.993Z,47.99
2023-04-22T20:22:58.952Z,47.84
2023-04-22T20:25:32.392Z,47.68
2023-04-22T20:28:05.134Z,47.84
2023-04-22T20:30:40.407Z,48.45
2023-04-22T20:33:15.870Z,48.55
2023-04-22T20:35:51.273Z,49.05
2023-04-22T20:38:25.999Z,49.13
2023-04-22T20:40:59.231Z,49.65
2023-04-22T20:43:31.709Z,50.21
2023-04-22T20:46:04.408Z,50.14
2023-04-22T20:48:37.020Z,50.78
2023-04-22T20:51:09.583Z,50.72
2023-04-22T20:53:43.026Z,50.62
2023-04-22T20:56:15.606Z,50.65
2023-04-22T20:58:48.379Z,50.69
2023-04-22T21:01:20.858Z,51.00
2023-04-22T21:03:57.796Z,50.96
2023-04-22T21:06:34.060Z,50.64
2023-04-22T21:09:07.717Z,51.37
2023-04-22T21:11:41.083Z,51.23
2023-04-22T21:14:14.291Z,51.42
2023-04-22T21:16:50.856Z,51.35
2023-04-22T21:19:23.730Z,51.00
2023-04-22T21:21:59.574Z,51.21
2023-04-22T21:24:32.257Z,51.20
2023-04-22T21:27:05.911Z,50.32
2023-04-22T21:29:40.091Z,50.85
2023-04-22T21:32:12.453Z,51.15
2023-04-22T21:34:45.328Z,50.86
2023-04-22T21:37:18.392Z,51.37
2023-04-22T21:39:50.783Z,51.22
2023-04-22T21:42:23.164Z,51.17
2023-04-22T21:44:56.279Z,51.34
2023-04-22T21:47:29.070Z,51.19
2023-04-22T21:50:01.749Z,50.65
2023-04-22T21:52:34.184Z,50.91
2023-04-22T21:55:07.815Z,51.35
2023-04-22T21:57:41.140Z,51.73
2023-04-22T22:00:17.474Z,51.56
2023-04-22T22:02:50.511Z,51.31
2023-04-22T22:05:23.161Z,51.27
2023-04-22T22:07:56.878Z,51.10
2023-04-22T22:10:29.513Z,51.01
2023-04-22T22:13:02.519Z,51.18
2023-04-22T22:15:34.980Z,51.16
2023-04-22T22:18:07.928Z,50.92
2023-04-22T22:20:40.313Z,50.86
2023-04-22T22:23:12.836Z,50.85
2023-04-22T22:25:45.360Z,51.43
2023-04-22T22:28:18.097Z,51.54
2023-04-22T22:30:50.215Z,51.51
2023-04-22T22:33:22.585Z,51.86
2023-04-22T22:35:55.445Z,51.75
2023-04-22T22:38:28.405Z,51.69
2023-04-22T22:41:00.973Z,52.02
2023-04-22T22:43:33.217Z,52.29
2023-04-22T22:46:06.022Z,52.35
2023-04-22T22:48:38.681Z,52.69
2023-04-22T22:51:15.438Z,52.97
2023-04-22T22:53:50.215Z,52.82
2023-04-22T22:56:22.604Z,52.72
2023-04-22T22:58:55.199Z,52.83
2023-04-22T23:01:27.338Z,52.97
2023-04-22T23:03:59.848Z,53.16
2023-04-22T23:06:32.975Z,53.06
2023-04-22T23:09:05.248Z,53.34
2023-04-22T23:11:37.547Z,53.24
2023-04-22T23:14:10.696Z,52.93
2023-04-22T23:16:42.922Z,53.08
2023-04-22T23:19:18.161Z,53.20
2023-04-22T23:21:51.474Z,53.49
2023-04-22T23:24:25.490Z,53.41
2023-04-22T23:26:58.695Z,53.36
2023-04-22T23:29:32.082Z,53.32
2023-04-22T23:32:09.178Z,53.31
2023-04-22T23:34:45.847Z,53.65
2023-04-22T23:37:20.093Z,53.09
2023-04-22T23:39:52.192Z,53.00
2023-04-22T23:42:24.368Z,53.30
2023-04-22T23:44:56.778Z,53.32
2023-04-22T23:47:29.239Z,53.54
2023-04-22T23:50:01.824Z,53.40
2023-04-22T23:52:37.763Z,53.72
2023-04-22T23:55:13.050Z,53.36
2023-04-22T23:57:46.269Z,53.41
